Locust Run, Pennsylvania
Current Conditions -  °F | °C
As of 2:53 AM on Saturday 20 Dec 2014 (Local Time) from KSEG Reporting Station
Overcast Overcast  
Wind Chill: 22°   Ceiling: 3200
Heat Index: 31°   Visibility: 10mi
Dew Point: 18°   Wind: 10mph
Humidity: 59%   Direction: 360°N
Pressure: 30.24"   Gusts: NA
Location:  40.6058°N, 77.1728°W
Report Text: KSEG 200753Z AUTO 36009KT 10SM OVC032 M01/M08 A3024 RMK AO2 SLP245 T10061078
Loading
Personal Weather Stations






























Interactive Weather Map New forecast layout! Learn more

10-Day Weather Forecast

Advertisements
Track Severe Weather on mobile